Charter Quote
Worldwide +1-877-727-2538 Call
Select Language Lang
SAFETY RELIABILITY EXPERIENCE

Private Jet Charter Services - Shuangliu (ZUUU)

Paramount Business Jets offers private jet charter flights and luxury airliner charters to and from Shuangliu.

AIRPORT INFORMATION
ICAOZUUU
LOCATIONChengdu, China
FACILITY TYPEAIRPORT

At Paramount Business Jets you can hire chartered private jets to and from Shuangliu with as little as 4 hours of notice. All flights booked via Paramount Business Jets are operated by certified direct air carriers that meet and exceed the FAA part 135 and 121 protocol or a foreign equivalent safety authority. Furthermore, Paramount Business Jets subscribes to ARGUS for their third party safety checks of operators, aircraft, and crews prior each and every flight to and from Shuangliu and worldwide.

  • Quote a trip using Shuangliu or call us 24/7 - 365 days a year at +1-877-727-2538.
Questions? Call +1-877-727-2538

METAR Weather Data at Shuangliu, ZUUU

STATIONZUUU
OBSERVEDTue Jul 16, 04:00 UTC
NOWTue Jul 16, 04:09 UTC
AGE9 min ago
WINDN at 4 mph
VISIBILITY10 miles
CONDITIONSlight rain showers
CLOUDSmostly cloudy
TEMP73°F (23°C)
DEWPT72°F (22°C)
HUMIDITY94%
BAROMETER1005 hPa (29.68 in Hg)
METARZUUU 160400Z 36002MPS 310V040 6000 -SHRA FEW005 SCT008 BKN026 23/22 Q1005 NOSIG

Call us on +1-877-727-2538 (24 Hours) to Hire a Private Jet or Get a Quick Quote.

Find Airports Near any Location

Processing
...